Time;durP1;ratioP1;P1;durP2;ratioP2;P2;SDS_P1;SDS_P2;PMS_P1;PMS_P2;Temp;Humidity;BMP_temperature;BMP_pressure;BME280_temperature;BME280_humidity;BME280_pressure;Samples;Min_cycle;Max_cycle;Signal;HPM_P1;HPM_P2
2022/03/21 02:23:08;;;;;;;;;;;5.90;99.90;;;;;;5790933;23;19967;-83
2022/03/21 02:25:34;;;;;;;;;;;5.80;99.90;;;;;;4957366;28;19962;-83
2022/03/21 02:28:02;;;;;;;;;;;5.80;99.90;;;;;;4948251;28;20634;-83
2022/03/21 02:30:29;;;;;;;;;;;5.70;99.90;;;;;;4947050;28;20395;-83
2022/03/21 02:32:55;;;;;;;;;;;5.60;99.90;;;;;;4947807;29;19990;-83
2022/03/21 02:35:21;;;;;;;;;;;5.50;99.90;;;;;;4949747;28;19980;-83
2022/03/21 02:37:48;;;;;;;;;;;5.50;99.90;;;;;;4951212;28;20314;-84
2022/03/21 02:40:14;;;;;;;;;;;5.40;99.90;;;;;;4951494;28;20041;-84
2022/03/21 02:42:40;;;;;;;;;;;5.30;99.90;;;;;;4968405;28;19949;-83
2022/03/21 02:45:05;;;;;;;;;;;5.30;99.90;;;;;;4956555;28;19949;-83
2022/03/21 02:47:31;;;;;;;;;;;5.30;99.90;;;;;;4951964;28;20042;-84
2022/03/21 02:50:00;;;;;;;;;;;5.30;99.90;;;;;;4959424;28;20418;-83
2022/03/21 02:52:28;;;;;;;;;;;5.30;99.90;;;;;;4950944;28;20322;-84
2022/03/21 02:54:53;;;;;;;;;;;5.20;99.90;;;;;;4950871;28;19956;-84
2022/03/21 02:57:19;;;;;;;;;;;5.20;99.90;;;;;;4951373;28;20280;-83
2022/03/21 02:59:45;;;;;;;;;;;5.20;99.90;;;;;;4951529;28;19949;-83
2022/03/21 03:02:10;;;;;;;;;;;5.20;99.90;;;;;;4952595;28;19992;-83
2022/03/21 03:04:36;;;;;;;;;;;5.20;99.90;;;;;;4953088;28;20034;-84
2022/03/21 03:07:01;;;;;;;;;;;5.20;99.90;;;;;;4944420;29;19951;-83
2022/03/21 03:09:27;;;;;;;;;;;5.10;99.90;;;;;;4946942;28;20040;-83
2022/03/21 03:11:53;;;;;;;;;;;5.20;99.90;;;;;;4951927;28;19960;-82
2022/03/21 03:14:18;;;;;;;;;;;5.10;99.90;;;;;;4949579;28;19967;-83
2022/03/21 03:16:44;;;;;;;;;;;5.10;99.90;;;;;;4953226;28;20028;-83
2022/03/21 03:19:10;;;;;;;;;;;5.00;99.90;;;;;;4951414;28;19940;-83
2022/03/21 03:21:40;;;;;;;;;;;5.00;99.90;;;;;;4951899;28;19997;-83
2022/03/21 03:24:08;;;;;;;;;;;5.00;99.90;;;;;;4949906;28;20101;-83
2022/03/21 03:26:34;;;;;;;;;;;4.90;99.90;;;;;;4950143;29;20388;-83
2022/03/21 03:29:00;;;;;;;;;;;4.90;99.90;;;;;;4951370;28;20516;-83
2022/03/21 03:31:26;;;;;;;;;;;4.90;99.90;;;;;;4951897;28;19955;-84
2022/03/21 03:33:52;;;;;;;;;;;5.30;99.90;;;;;;4949580;28;19959;-83
2022/03/21 03:36:18;;;;;;;;;;;4.80;99.90;;;;;;4955786;28;19947;-83
2022/03/21 03:38:44;;;;;;;;;;;4.70;99.90;;;;;;4955747;28;20047;-83
2022/03/21 03:41:10;;;;;;;;;;;4.70;99.90;;;;;;4953436;28;20116;-83
2022/03/21 03:43:36;;;;;;;;;;;4.70;99.90;;;;;;4951378;28;19969;-84
2022/03/21 03:46:02;;;;;;;;;;;4.60;99.90;;;;;;4950840;28;19978;-82
2022/03/21 03:48:28;;;;;;;;;;;4.60;99.90;;;;;;4947545;28;19943;-83
2022/03/21 03:50:54;;;;;;;;;;;4.50;99.90;;;;;;4951179;28;20166;-84
2022/03/21 03:53:19;;;;;;;;;;;4.50;99.90;;;;;;4949871;28;20051;-84
2022/03/21 03:55:45;;;;;;;;;;;5.30;99.90;;;;;;4951286;28;20011;-85
2022/03/21 03:58:11;;;;;;;;;;;4.30;99.90;;;;;;4950437;28;20693;-84
2022/03/21 04:00:37;;;;;;;;;;;4.30;99.90;;;;;;4959039;28;19948;-85
2022/03/21 04:05:46;;;;;;;;;;;4.20;99.90;;;;;;4955213;28;20419;-84
2022/03/21 04:08:12;;;;;;;;;;;4.20;99.90;;;;;;4943650;28;20006;-84
2022/03/21 04:10:38;;;;;;;;;;;4.10;99.90;;;;;;4950511;28;19969;-84
2022/03/21 04:13:03;;;;;;;;;;;4.20;99.90;;;;;;4951266;28;19969;-84
2022/03/21 04:15:29;;;;;;;;;;;4.10;99.90;;;;;;4950313;28;19958;-83
2022/03/21 04:17:59;;;;;;;;;;;4.10;99.90;;;;;;4951335;28;20309;-83
2022/03/21 04:20:25;;;;;;;;;;;4.00;99.90;;;;;;4949810;28;19967;-84
2022/03/21 04:22:50;;;;;;;;;;;4.00;99.90;;;;;;4950206;28;19957;-84
2022/03/21 04:25:16;;;;;;;;;;;4.00;99.90;;;;;;4948826;28;19946;-84
2022/03/21 04:27:41;;;;;;;;;;;3.90;99.90;;;;;;4953322;28;19942;-84
2022/03/21 04:30:07;;;;;;;;;;;3.90;99.90;;;;;;4947581;28;19956;-83
2022/03/21 04:32:36;;;;;;;;;;;3.80;99.90;;;;;;4951289;28;19945;-84
2022/03/21 04:35:03;;;;;;;;;;;3.80;99.90;;;;;;4951255;28;19951;-83
2022/03/21 04:37:28;;;;;;;;;;;3.70;99.90;;;;;;4948242;28;20009;-84
2022/03/21 04:39:54;;;;;;;;;;;3.60;99.90;;;;;;4948406;28;20011;-83
2022/03/21 04:42:20;;;;;;;;;;;3.60;99.90;;;;;;4949277;29;19945;-83
2022/03/21 04:44:48;;;;;;;;;;;4.30;99.90;;;;;;4952406;28;20050;-83
2022/03/21 04:47:14;;;;;;;;;;;3.70;99.90;;;;;;4936372;28;19951;-83
2022/03/21 04:49:39;;;;;;;;;;;3.70;99.90;;;;;;4950822;28;20310;-83
2022/03/21 04:52:06;;;;;;;;;;;3.70;99.90;;;;;;4950066;28;20009;-83
2022/03/21 04:54:32;;;;;;;;;;;3.80;99.90;;;;;;4966192;28;20376;-83
2022/03/21 04:56:57;;;;;;;;;;;3.80;99.90;;;;;;4950250;28;20019;-82
2022/03/21 04:59:23;;;;;;;;;;;3.80;99.90;;;;;;4949510;28;20025;-84
2022/03/21 05:01:48;;;;;;;;;;;3.80;99.90;;;;;;4949296;28;20043;-83
2022/03/21 05:04:14;;;;;;;;;;;3.70;99.90;;;;;;4947815;28;20011;-84
2022/03/21 05:06:40;;;;;;;;;;;3.70;99.90;;;;;;4944784;28;19954;-84
2022/03/21 05:09:07;;;;;;;;;;;3.70;99.90;;;;;;4946351;28;19956;-84
2022/03/21 05:11:32;;;;;;;;;;;3.60;99.90;;;;;;4949100;28;20008;-84
2022/03/21 05:13:58;;;;;;;;;;;3.60;99.90;;;;;;4952594;28;19965;-83
2022/03/21 05:16:24;;;;;;;;;;;3.60;99.90;;;;;;4956829;28;19943;-84
2022/03/21 05:18:50;;;;;;;;;;;3.50;99.90;;;;;;4959154;28;19952;-83
2022/03/21 05:21:16;;;;;;;;;;;3.50;99.90;;;;;;4955719;28;20030;-83
2022/03/21 05:31:54;;;;;;;;;;;3.30;99.90;;;;;;4954376;28;20495;-83
2022/03/21 05:37:04;;;;;;;;;;;3.20;99.90;;;;;;4947870;28;19947;-83
2022/03/21 05:39:29;;;;;;;;;;;3.10;99.90;;;;;;4946066;28;19954;-82
2022/03/21 05:41:55;;;;;;;;;;;3.10;99.90;;;;;;4949990;28;19946;-83
2022/03/21 05:44:21;;;;;;;;;;;3.10;99.90;;;;;;4948750;28;19945;-84
2022/03/21 05:46:46;;;;;;;;;;;3.00;99.90;;;;;;4949354;28;19947;-83
2022/03/21 05:49:12;;;;;;;;;;;3.00;99.90;;;;;;4949329;28;19983;-83
2022/03/21 05:51:39;;;;;;;;;;;3.00;99.90;;;;;;4950492;28;19946;-83
2022/03/21 05:54:11;;;;;;;;;;;3.00;99.90;;;;;;4947384;28;20414;-83
2022/03/21 05:56:37;;;;;;;;;;;3.00;99.90;;;;;;4948865;28;19951;-84
2022/03/21 06:01:47;;;;;;;;;;;3.00;99.90;;;;;;4950521;28;20294;-83
2022/03/21 06:04:13;;;;;;;;;;;3.00;99.90;;;;;;4946993;28;19997;-83
2022/03/21 06:06:38;;;;;;;;;;;2.90;99.90;;;;;;4952225;28;20350;-82
2022/03/21 06:09:04;;;;;;;;;;;2.90;99.90;;;;;;4940461;28;19976;-83
2022/03/21 06:11:29;;;;;;;;;;;2.90;99.90;;;;;;4949633;29;19967;-83
2022/03/21 06:13:55;;;;;;;;;;;2.90;99.90;;;;;;4953553;28;19977;-84
2022/03/21 06:16:21;;;;;;;;;;;2.90;99.90;;;;;;4951032;28;19955;-85
2022/03/21 06:18:46;;;;;;;;;;;2.90;99.90;;;;;;4954094;29;19963;-84
2022/03/21 06:21:12;;;;;;;;;;;2.90;99.90;;;;;;4953652;28;20041;-83
2022/03/21 06:23:37;;;;;;;;;;;2.90;99.90;;;;;;4952338;28;19968;-84
2022/03/21 06:26:03;;;;;;;;;;;3.00;99.90;;;;;;4952000;28;20368;-84
2022/03/21 06:28:29;;;;;;;;;;;3.00;99.90;;;;;;4965438;28;19946;-83
2022/03/21 06:30:55;;;;;;;;;;;3.10;99.90;;;;;;4958519;28;19989;-84
2022/03/21 06:33:21;;;;;;;;;;;3.10;99.90;;;;;;4962281;28;20054;-83
2022/03/21 06:35:47;;;;;;;;;;;3.30;99.90;;;;;;4952573;28;19948;-83
2022/03/21 06:38:12;;;;;;;;;;;3.20;99.90;;;;;;4953474;28;19962;-85
2022/03/21 06:40:39;;;;;;;;;;;3.30;99.90;;;;;;4955476;28;20467;-82
2022/03/21 06:43:04;;;;;;;;;;;3.40;99.90;;;;;;4962896;28;19996;-84
2022/03/21 06:45:30;;;;;;;;;;;3.50;99.90;;;;;;4957346;28;20612;-84
2022/03/21 06:47:57;;;;;;;;;;;3.60;99.90;;;;;;4959038;28;20034;-83
2022/03/21 06:50:22;;;;;;;;;;;3.80;99.90;;;;;;4951571;28;19950;-84
2022/03/21 06:52:49;;;;;;;;;;;3.80;99.90;;;;;;4953632;28;19964;-84
2022/03/21 06:55:14;;;;;;;;;;;3.90;99.90;;;;;;4953764;28;19971;-83
2022/03/21 06:57:40;;;;;;;;;;;4.80;99.90;;;;;;4952147;28;20029;-82
2022/03/21 07:00:06;;;;;;;;;;;4.20;99.90;;;;;;4951254;28;19978;-82
2022/03/21 07:02:32;;;;;;;;;;;4.30;99.90;;;;;;4960410;28;20065;-82
2022/03/21 07:04:58;;;;;;;;;;;4.40;99.90;;;;;;4962221;28;20381;-82
2022/03/21 07:07:24;;;;;;;;;;;4.50;99.90;;;;;;4954811;28;20252;-81
2022/03/21 07:09:49;;;;;;;;;;;4.60;99.90;;;;;;4949667;28;20018;-82
2022/03/21 07:12:15;;;;;;;;;;;4.70;99.90;;;;;;4943196;28;19948;-82
2022/03/21 07:14:40;;;;;;;;;;;4.90;99.90;;;;;;4951334;29;19972;-83
2022/03/21 07:17:06;;;;;;;;;;;4.90;99.90;;;;;;4958319;28;20036;-83
2022/03/21 07:19:32;;;;;;;;;;;5.00;99.90;;;;;;4953737;28;19985;-83
2022/03/21 07:21:57;;;;;;;;;;;5.10;99.90;;;;;;4953168;28;19942;-84
2022/03/21 07:24:23;;;;;;;;;;;5.20;99.90;;;;;;4949781;29;19960;-83
2022/03/21 07:26:48;;;;;;;;;;;5.40;99.90;;;;;;4952059;28;19952;-83
2022/03/21 07:29:14;;;;;;;;;;;5.40;99.90;;;;;;4951575;29;20459;-84
2022/03/21 07:31:39;;;;;;;;;;;5.60;99.90;;;;;;4952300;28;20323;-83
2022/03/21 07:34:06;;;;;;;;;;;5.70;99.90;;;;;;4949714;28;20336;-85
2022/03/21 07:36:32;;;;;;;;;;;5.80;99.90;;;;;;4950623;28;19950;-83
2022/03/21 07:38:58;;;;;;;;;;;5.90;99.90;;;;;;4951053;28;19937;-83
2022/03/21 07:41:27;;;;;;;;;;;6.00;99.90;;;;;;4951427;28;19970;-82
2022/03/21 07:43:54;;;;;;;;;;;6.10;99.90;;;;;;4952398;28;20269;-83
2022/03/21 07:49:04;;;;;;;;;;;6.30;99.90;;;;;;4965804;28;20020;-81
2022/03/21 07:51:29;;;;;;;;;;;6.50;99.90;;;;;;4952643;28;20420;-81
2022/03/21 07:53:55;;;;;;;;;;;6.50;99.90;;;;;;4951449;28;19957;-82
2022/03/21 07:56:20;;;;;;;;;;;6.60;99.90;;;;;;4951739;28;20054;-82
2022/03/21 07:58:46;;;;;;;;;;;6.80;99.90;;;;;;4951912;28;20056;-82
2022/03/21 08:01:15;;;;;;;;;;;6.80;99.90;;;;;;4950525;28;19949;-81
2022/03/21 08:03:41;;;;;;;;;;;6.90;99.90;;;;;;4949002;28;20357;-81
2022/03/21 08:06:10;;;;;;;;;;;7.00;99.90;;;;;;4940565;28;19945;-81
2022/03/21 08:08:37;;;;;;;;;;;7.00;99.90;;;;;;4941577;28;19941;-79
2022/03/21 08:11:04;;;;;;;;;;;7.10;99.90;;;;;;4942779;28;19990;-81
2022/03/21 08:13:31;;;;;;;;;;;7.30;99.90;;;;;;4948833;28;19962;-82
2022/03/21 08:15:56;;;;;;;;;;;7.40;99.90;;;;;;4953799;28;19939;-82
2022/03/21 08:18:22;;;;;;;;;;;7.50;99.90;;;;;;4952610;28;20322;-80
2022/03/21 08:20:48;;;;;;;;;;;8.40;99.90;;;;;;4945699;28;19937;-81
2022/03/21 08:23:14;;;;;;;;;;;7.60;99.90;;;;;;4949172;28;20697;-80
2022/03/21 08:25:46;;;;;;;;;;;7.60;99.90;;;;;;4949127;28;20408;-80
2022/03/21 08:28:12;;;;;;;;;;;7.70;99.90;;;;;;4960379;28;20285;-81
2022/03/21 08:30:38;;;;;;;;;;;8.30;99.90;;;;;;4960727;28;19957;-81
2022/03/21 08:33:06;;;;;;;;;;;8.00;99.90;;;;;;4948406;28;19956;-81
2022/03/21 08:35:32;;;;;;;;;;;8.10;99.90;;;;;;4949821;28;19941;-81
2022/03/21 08:37:58;;;;;;;;;;;8.20;99.90;;;;;;4948897;28;20037;-81
2022/03/21 08:40:24;;;;;;;;;;;8.30;99.90;;;;;;4944718;28;20772;-80
2022/03/21 08:42:49;;;;;;;;;;;8.40;99.90;;;;;;4940917;28;19952;-81
2022/03/21 08:45:15;;;;;;;;;;;8.50;99.90;;;;;;4949162;28;20381;-82
2022/03/21 08:47:43;;;;;;;;;;;8.70;99.90;;;;;;4949270;28;20376;-84
2022/03/21 08:50:09;;;;;;;;;;;8.80;99.90;;;;;;4950549;28;20376;-82
2022/03/21 08:52:39;;;;;;;;;;;9.00;99.90;;;;;;4948709;28;19950;-84
2022/03/21 08:55:05;;;;;;;;;;;9.10;99.90;;;;;;4948905;28;20323;-83
2022/03/21 08:57:31;;;;;;;;;;;9.30;99.90;;;;;;4946734;28;19952;-83
2022/03/21 08:59:56;;;;;;;;;;;9.40;99.90;;;;;;4952088;28;19943;-81
2022/03/21 09:02:22;;;;;;;;;;;9.60;99.90;;;;;;4948414;28;19947;-81
2022/03/21 09:04:47;;;;;;;;;;;9.70;99.90;;;;;;4946102;28;19950;-82
2022/03/21 09:07:13;;;;;;;;;;;9.80;99.90;;;;;;4948434;28;19943;-82
2022/03/21 09:09:39;;;;;;;;;;;9.90;99.90;;;;;;4948256;28;20117;-82
2022/03/21 09:12:05;;;;;;;;;;;10.00;99.90;;;;;;4947350;28;19951;-83
2022/03/21 09:14:30;;;;;;;;;;;10.10;99.90;;;;;;4947765;28;20382;-82
2022/03/21 09:16:56;;;;;;;;;;;10.20;99.90;;;;;;4965388;28;20049;-83
2022/03/21 09:19:23;;;;;;;;;;;10.40;99.90;;;;;;4949674;28;20351;-82
2022/03/21 09:21:50;;;;;;;;;;;10.50;99.90;;;;;;4957402;28;20304;-84
2022/03/21 09:24:15;;;;;;;;;;;10.70;99.90;;;;;;4946691;28;20083;-82
2022/03/21 09:26:41;;;;;;;;;;;10.70;99.90;;;;;;4953218;28;20435;-82
2022/03/21 09:29:06;;;;;;;;;;;10.80;99.90;;;;;;4953857;28;19944;-83
2022/03/21 09:31:35;;;;;;;;;;;10.90;99.90;;;;;;4959522;28;19946;-83
2022/03/21 09:34:01;;;;;;;;;;;11.00;99.90;;;;;;4945826;28;19965;-83
2022/03/21 09:36:27;;;;;;;;;;;11.10;99.90;;;;;;4957304;28;20398;-84
2022/03/21 09:38:53;;;;;;;;;;;11.30;97.80;;;;;;4956599;28;20030;-85
2022/03/21 09:41:23;;;;;;;;;;;11.30;98.90;;;;;;4946554;28;20331;-82
2022/03/21 09:43:50;;;;;;;;;;;11.40;99.40;;;;;;4948887;28;20034;-80
2022/03/21 09:46:16;;;;;;;;;;;11.50;97.10;;;;;;4944497;28;19978;-83
2022/03/21 09:48:45;;;;;;;;;;;11.70;98.90;;;;;;4951999;29;19961;-81
2022/03/21 09:51:11;;;;;;;;;;;11.70;98.90;;;;;;4949796;29;19958;-81
2022/03/21 09:53:38;;;;;;;;;;;11.90;99.90;;;;;;4950860;28;19963;-82
2022/03/21 09:56:04;;;;;;;;;;;12.00;95.90;;;;;;4935057;29;20332;-83
2022/03/21 09:58:30;;;;;;;;;;;12.20;93.90;;;;;;4953420;29;19967;-83
2022/03/21 10:00:56;;;;;;;;;;;12.20;94.30;;;;;;4954045;28;19962;-83
2022/03/21 10:03:22;;;;;;;;;;;12.40;97.10;;;;;;4953623;28;20211;-81
2022/03/21 10:05:49;;;;;;;;;;;12.50;97.20;;;;;;4953560;28;20087;-82
2022/03/21 10:08:17;;;;;;;;;;;12.70;87.70;;;;;;4953445;28;19959;-82
2022/03/21 10:10:51;;;;;;;;;;;12.70;84.70;;;;;;4953409;28;19951;-83
2022/03/21 10:13:18;;;;;;;;;;;12.80;93.40;;;;;;4952337;29;20051;-82
2022/03/21 10:15:43;;;;;;;;;;;12.90;89.70;;;;;;4951891;28;20213;-82
2022/03/21 10:18:10;;;;;;;;;;;13.00;72.40;;;;;;4954123;28;19957;-83
2022/03/21 10:20:36;;;;;;;;;;;13.10;85.50;;;;;;4952353;29;19965;-81
2022/03/21 10:23:19;;;;;;;;;;;13.30;82.40;;;;;;4952581;28;20353;-81
2022/03/21 10:25:45;;;;;;;;;;;13.40;82.30;;;;;;4952939;29;19953;-85
2022/03/21 10:28:30;;;;;;;;;;;13.60;89.00;;;;;;4951696;29;19956;-84
2022/03/21 10:30:56;;;;;;;;;;;13.60;75.80;;;;;;4954992;28;19990;-86
2022/03/21 10:33:23;;;;;;;;;;;13.60;75.80;;;;;;4953120;28;19990;-81
2022/03/21 10:35:48;;;;;;;;;;;13.70;84.70;;;;;;4952530;28;20376;-82
2022/03/21 10:38:27;;;;;;;;;;;13.90;86.20;;;;;;4952990;29;19981;-83
2022/03/21 10:40:53;;;;;;;;;;;14.20;68.90;;;;;;4934909;29;20022;-82
2022/03/21 10:43:19;;;;;;;;;;;14.30;85.90;;;;;;4937618;29;20018;-82
2022/03/21 10:45:50;;;;;;;;;;;14.40;80.30;;;;;;4937034;29;19975;-81
2022/03/21 10:48:26;;;;;;;21.50;14.50;;;14.60;66.80;;;;;;4951292;28;20459;-84
2022/03/21 10:50:55;;;;;;;22.30;14.25;;;14.60;77.40;;;;;;4951317;28;20047;-84
2022/03/21 10:53:28;;;;;;;22.15;13.48;;;14.70;71.60;;;;;;4952557;28;20047;-83
2022/03/21 10:55:53;;;;;;;24.48;13.77;;;14.50;67.80;;;;;;4952412;28;20126;-85
2022/03/21 10:58:47;;;;;;;22.27;14.68;;;14.50;66.70;;;;;;4952785;28;20106;-83
2022/03/21 11:01:24;;;;;;;23.90;14.35;;;14.60;64.90;;;;;;4953053;29;20075;-85
2022/03/21 11:03:51;;;;;;;22.27;13.63;;;14.80;65.30;;;;;;4952149;28;20035;-83
2022/03/21 11:06:18;;;;;;;19.88;13.68;;;15.10;63.70;;;;;;4951418;29;20066;-85
2022/03/21 11:08:50;;;;;;;23.63;13.25;;;15.20;61.70;;;;;;4952208;28;20058;-83
2022/03/21 11:11:15;;;;;;;22.35;14.43;;;15.40;62.50;;;;;;4951577;28;20039;-84
2022/03/21 11:13:42;;;;;;;26.13;14.88;;;15.70;61.20;;;;;;4951171;28;20043;-84
2022/03/21 11:16:09;;;;;;;21.02;13.10;;;15.90;60.10;;;;;;4951337;28;20055;-84
2022/03/21 11:18:35;;;;;;;22.25;14.60;;;16.00;59.70;;;;;;4951022;29;20047;-84
2022/03/21 11:21:01;;;;;;;22.33;14.77;;;16.40;58.70;;;;;;4950902;28;20059;-83
2022/03/21 11:23:30;;;;;;;25.95;14.20;;;16.40;59.80;;;;;;4951470;28;20055;-86
2022/03/21 11:26:25;;;;;;;23.05;15.05;;;16.70;59.30;;;;;;4956505;28;20130;-83
2022/03/21 11:29:29;;;;;;;21.85;13.82;;;16.90;58.90;;;;;;4951963;28;20109;-83
2022/03/21 11:32:32;;;;;;;23.40;15.27;;;16.90;55.10;;;;;;4950246;28;20051;-85
2022/03/21 11:35:13;;;;;;;22.88;14.70;;;16.70;57.50;;;;;;4951723;29;20095;-83
2022/03/21 11:37:39;;;;;;;24.90;15.52;;;17.00;57.10;;;;;;4950334;29;20084;-83
2022/03/21 11:40:35;;;;;;;20.95;13.70;;;16.70;56.20;;;;;;4951857;28;20047;-86
2022/03/21 11:43:19;;;;;;;21.35;13.77;;;16.80;54.30;;;;;;4950065;29;20055;-83
2022/03/21 11:45:47;;;;;;;24.38;14.90;;;16.80;54.50;;;;;;4938281;29;20576;-83
2022/03/21 11:48:19;;;;;;;23.33;14.18;;;17.00;56.60;;;;;;4948107;28;20490;-85
2022/03/21 11:50:50;;;;;;;23.88;14.43;;;17.30;55.80;;;;;;4950816;29;20553;-83
2022/03/21 11:53:26;;;;;;;25.63;15.13;;;17.70;56.00;;;;;;4947066;29;20542;-83
2022/03/21 11:55:52;;;;;;;21.95;14.27;;;18.00;55.80;;;;;;4951054;28;20139;-85
2022/03/21 11:58:36;;;;;;;23.48;15.13;;;18.20;54.90;;;;;;4949556;28;20193;-81
2022/03/21 12:01:05;;;;;;;22.85;14.35;;;18.10;52.20;;;;;;4950931;29;20554;-83
2022/03/21 12:03:31;;;;;;;28.60;14.82;;;18.00;54.60;;;;;;4950389;29;20042;-86
2022/03/21 12:05:57;;;;;;;23.67;14.73;;;18.10;54.00;;;;;;4950217;28;20039;-86
2022/03/21 12:08:36;;;;;;;23.60;14.15;;;18.20;53.50;;;;;;4946759;28;20059;-84
2022/03/21 12:11:02;;;;;;;20.33;13.50;;;17.90;52.90;;;;;;4950267;29;20050;-86
2022/03/21 12:13:44;;;;;;;22.88;15.02;;;17.70;53.50;;;;;;4950099;28;20047;-83
2022/03/21 12:16:18;;;;;;;23.05;14.50;;;17.60;53.40;;;;;;4935929;29;20051;-85
2022/03/21 12:19:02;;;;;;;25.23;15.30;;;17.40;53.40;;;;;;4946041;29;20039;-84
2022/03/21 12:21:28;;;;;;;22.15;14.48;;;17.30;51.90;;;;;;4950826;28;20047;-83
2022/03/21 12:24:16;;;;;;;22.13;15.77;;;17.10;53.70;;;;;;4950762;28;20083;-83
2022/03/21 12:26:53;;;;;;;24.95;14.27;;;17.20;53.00;;;;;;4950658;29;20055;-82
2022/03/21 12:29:32;;;;;;;21.17;14.15;;;17.10;53.20;;;;;;4947647;28;20069;-83
2022/03/21 12:32:24;;;;;;;25.75;14.95;;;17.10;54.60;;;;;;4949268;28;20039;-82
2022/03/21 12:34:50;;;;;;;22.48;14.35;;;17.30;56.20;;;;;;4950470;28;20062;-82
2022/03/21 12:37:31;;;;;;;25.33;13.82;;;17.60;55.80;;;;;;4950531;28;20046;-83
2022/03/21 12:39:59;;;;;;;24.23;14.18;;;17.90;52.90;;;;;;4938538;28;20062;-82
2022/03/21 12:42:28;;;;;;;23.65;14.55;;;17.70;53.80;;;;;;4948927;29;20051;-84
2022/03/21 12:44:54;;;;;;;20.10;13.40;;;17.80;53.90;;;;;;4950931;28;20038;-84
2022/03/21 12:47:21;;;;;;;22.58;13.50;;;17.80;54.30;;;;;;4951026;28;20047;-83
2022/03/21 12:49:50;;;;;;;23.60;13.70;;;17.90;53.90;;;;;;4950633;28;20047;-85
2022/03/21 12:52:29;;;;;;;23.08;13.88;;;18.10;54.20;;;;;;4947639;28;20043;-82
2022/03/21 12:54:57;;;;;;;24.90;14.02;;;18.40;54.40;;;;;;4949268;29;20566;-83
2022/03/21 12:57:23;;;;;;;24.45;14.63;;;18.20;53.50;;;;;;4952580;28;20347;-82
2022/03/21 12:59:49;;;;;;;25.65;13.95;;;18.30;53.80;;;;;;4952474;28;20122;-83
2022/03/21 13:02:25;;;;;;;24.73;14.55;;;18.40;53.10;;;;;;4948923;29;20452;-82
2022/03/21 13:10:34;;;;;;;25.00;14.57;;;18.30;52.80;;;;;;4951763;28;20067;-81
2022/03/21 13:13:01;;;;;;;22.58;14.55;;;18.30;53.10;;;;;;4949544;28;20089;-83
2022/03/21 13:15:28;;;;;;;21.73;14.10;;;18.30;53.40;;;;;;4949980;28;20043;-81
2022/03/21 13:18:01;;;;;;;22.08;13.15;;;18.50;53.40;;;;;;4953522;28;20050;-82
2022/03/21 13:20:31;;;;;;;25.80;13.38;;;18.50;53.70;;;;;;4950515;28;20114;-85
2022/03/21 13:23:00;;;;;;;22.17;14.68;;;18.80;53.00;;;;;;4943913;28;20114;-82
2022/03/21 13:25:36;;;;;;;22.50;14.18;;;18.50;52.10;;;;;;4945939;28;20054;-82
2022/03/21 13:28:13;;;;;;;31.75;14.88;;;18.30;52.80;;;;;;4940658;29;20043;-84
2022/03/21 13:30:54;;;;;;;22.00;14.07;;;17.90;52.20;;;;;;4947617;29;20421;-85
2022/03/21 13:33:26;;;;;;;27.60;14.95;;;17.70;53.20;;;;;;4946932;28;20434;-82
2022/03/21 13:36:00;;;;;;;20.40;14.20;;;17.70;53.90;;;;;;4950360;28;20507;-82
2022/03/21 13:38:27;;;;;;;22.02;14.15;;;17.50;54.40;;;;;;4949963;28;20490;-82
2022/03/21 13:40:53;;;;;;;20.77;13.45;;;17.40;54.80;;;;;;4951869;28;20126;-82
2022/03/21 13:43:22;;;;;;;22.88;13.85;;;17.60;55.00;;;;;;4968821;28;20138;-82
2022/03/21 13:45:48;;;;;;;25.13;13.95;;;17.70;54.50;;;;;;4960707;28;20058;-85
2022/03/21 13:48:38;;;;;;;23.63;13.38;;;18.00;53.70;;;;;;4948639;28;20069;-84
2022/03/21 13:51:20;;;;;;;19.35;14.10;;;17.80;52.40;;;;;;4950694;28;20348;-86
2022/03/21 13:53:47;;;;;;;19.67;13.13;;;17.60;52.70;;;;;;4930497;29;20039;-85
2022/03/21 13:56:26;;;;;;;21.67;13.50;;;17.40;52.30;;;;;;4943172;29;20061;-87
2022/03/21 13:59:12;;;;;;;20.75;13.35;;;17.20;51.70;;;;;;4947682;29;20058;-84
2022/03/21 14:01:44;;;;;;;21.80;12.85;;;17.00;51.30;;;;;;4949168;28;20094;-87
2022/03/21 14:04:28;;;;;;;20.92;12.88;;;16.90;51.70;;;;;;4956935;29;20043;-83
2022/03/21 14:07:05;;;;;;;29.10;13.55;;;16.70;52.20;;;;;;4950067;29;20443;-84
2022/03/21 14:09:32;;;;;;;23.58;13.00;;;16.60;52.80;;;;;;4948588;28;20039;-86
2022/03/21 14:12:03;;;;;;;22.38;12.88;;;16.60;52.90;;;;;;4950316;28;20050;-83
2022/03/21 14:14:28;;;;;;;;;;;16.60;53.00;;;;;;4948176;28;20054;-83
2022/03/21 14:16:54;;;;;;;22.92;14.05;;;16.90;51.70;;;;;;4948963;29;19922;-84
2022/03/21 14:19:20;;;;;;;20.48;14.32;;;16.60;53.50;;;;;;4948750;29;20455;-87
2022/03/21 14:21:45;;;;;;;22.15;14.02;;;16.50;53.10;;;;;;4948155;28;22167;-87
2022/03/21 14:24:11;;;;;;;29.33;13.88;;;16.60;53.30;;;;;;4947346;28;20067;-85
2022/03/21 14:26:40;;;;;;;22.30;13.35;;;16.30;53.50;;;;;;4946180;28;20052;-82
2022/03/21 14:29:06;;;;;;;26.08;13.90;;;16.20;53.80;;;;;;4948310;28;20037;-82
2022/03/21 14:31:35;;;;;;;21.45;13.23;;;16.20;54.10;;;;;;4946669;28;20114;-83
2022/03/21 14:34:01;;;;;;;21.10;13.18;;;16.20;54.10;;;;;;4935965;29;20055;-87
2022/03/21 14:36:27;;;;;;;23.23;12.13;;;16.20;53.00;;;;;;4953290;28;20043;-88
2022/03/21 14:38:54;;;;;;;18.65;12.73;;;16.20;53.30;;;;;;4959412;28;20042;-85
2022/03/21 14:41:21;;;;;;;22.02;13.82;;;16.10;52.30;;;;;;4951855;28;20055;-82
2022/03/21 14:43:49;;;;;;;22.77;13.20;;;16.00;52.40;;;;;;4952016;28;20050;-83
2022/03/21 14:46:18;;;;;;;21.88;13.20;;;16.00;52.80;;;;;;4970725;28;20058;-82
2022/03/21 14:48:44;;;;;;;23.40;13.50;;;15.80;52.80;;;;;;4971717;28;20042;-84
2022/03/21 14:51:11;;;;;;;19.15;11.88;;;15.90;52.60;;;;;;4960299;28;20058;-83
2022/03/21 14:53:40;;;;;;;21.77;13.25;;;15.80;52.60;;;;;;4951695;28;20067;-82
2022/03/21 14:56:06;;;;;;;22.65;13.05;;;15.80;53.80;;;;;;4940837;28;20036;-82
2022/03/21 14:58:34;;;;;;;18.48;12.32;;;15.90;53.60;;;;;;4951287;28;20154;-84
2022/03/21 15:01:00;;;;;;;22.10;12.38;;;15.90;53.50;;;;;;4951184;28;20149;-84
2022/03/21 15:03:29;;;;;;;22.23;12.50;;;16.20;53.40;;;;;;4949760;28;20054;-84
2022/03/21 15:05:55;;;;;;;22.48;12.25;;;15.80;52.90;;;;;;4952483;28;20126;-76
2022/03/21 15:08:21;;;;;;;26.13;12.13;;;15.80;53.30;;;;;;4951641;28;20126;-76
2022/03/21 15:10:47;;;;;;;20.25;11.32;;;15.70;52.80;;;;;;4955648;28;20047;-75
2022/03/21 15:13:15;;;;;;;21.15;12.55;;;15.60;52.60;;;;;;4951704;28;20047;-82
2022/03/21 15:15:41;;;;;;;24.15;12.68;;;15.50;52.10;;;;;;4959287;28;20097;-82
2022/03/21 15:18:08;;;;;;;19.80;11.55;;;15.40;52.30;;;;;;4949916;28;20102;-83
2022/03/21 15:20:34;;;;;;;30.33;12.70;;;15.30;52.50;;;;;;4950497;28;20051;-81
2022/03/21 15:23:00;;;;;;;18.65;12.27;;;15.30;52.60;;;;;;4948548;28;20241;-82
2022/03/21 15:25:26;;;;;;;20.80;11.98;;;15.30;52.60;;;;;;4953405;28;20051;-85
2022/03/21 15:27:52;;;;;;;24.38;12.68;;;15.70;53.30;;;;;;4951495;28;20521;-81
2022/03/21 15:30:18;;;;;;;23.67;12.50;;;15.20;53.80;;;;;;4951999;28;20125;-81
2022/03/21 15:32:45;;;;;;;19.25;11.50;;;15.30;53.30;;;;;;4952758;28;20043;-83
2022/03/21 15:35:11;;;;;;;56.50;34.22;;;15.30;52.90;;;;;;4947791;28;20070;-81
2022/03/21 15:43:07;;;;;;;25.33;11.98;;;15.40;54.60;;;;;;4947489;28;20050;-83
2022/03/21 15:45:34;;;;;;;25.38;13.57;;;15.40;53.80;;;;;;4952141;28;20049;-84
2022/03/21 15:48:00;;;;;;;21.52;12.80;;;15.40;53.70;;;;;;4950754;28;20043;-87
2022/03/21 15:50:26;;;;;;;23.17;13.20;;;15.40;53.50;;;;;;4951472;28;20142;-86
2022/03/21 15:52:51;;;;;;;26.58;14.38;;;15.60;53.40;;;;;;4952889;28;20114;-87
2022/03/21 15:55:18;;;;;;;28.17;12.40;;;15.40;53.50;;;;;;4948819;28;20087;-84
2022/03/21 15:57:44;;;;;;;23.40;12.50;;;15.40;53.40;;;;;;4976118;28;20485;-82
2022/03/21 16:00:13;;;;;;;21.23;12.75;;;15.40;52.90;;;;;;4963459;28;20083;-86
2022/03/21 16:02:40;;;;;;;25.80;12.38;;;15.30;52.80;;;;;;4954442;28;20616;-84
2022/03/21 16:05:11;;;;;;;23.67;11.82;;;15.50;53.70;;;;;;4954238;28;20047;-85
2022/03/21 16:07:38;;;;;;;24.63;13.05;;;15.20;53.50;;;;;;4959902;28;20055;-82
2022/03/21 16:10:05;;;;;;;21.92;12.75;;;15.20;53.50;;;;;;4954502;28;20523;-82
2022/03/21 16:12:31;;;;;;;23.02;12.95;;;15.10;53.90;;;;;;4970371;28;20116;-82
2022/03/21 16:14:59;;;;;;;24.27;12.80;;;15.20;54.70;;;;;;4950793;28;20405;-84
2022/03/21 16:17:26;;;;;;;20.23;13.07;;;15.30;55.30;;;;;;4948729;28;20419;-83
2022/03/21 16:19:52;;;;;;;21.17;11.75;;;15.30;55.40;;;;;;4949233;28;20043;-83
2022/03/21 16:22:18;;;;;;;19.75;11.68;;;15.50;54.80;;;;;;4944291;28;20179;-83
2022/03/21 16:24:43;;;;;;;21.70;11.65;;;15.50;55.50;;;;;;4943115;28;20154;-83
2022/03/21 16:27:09;;;;;;;20.92;11.82;;;15.60;55.40;;;;;;4943288;28;20423;-82
2022/03/21 16:29:35;;;;;;;19.50;12.52;;;15.90;55.20;;;;;;4942334;28;20150;-83
2022/03/21 16:32:09;;;;;;;23.77;13.57;;;15.70;55.10;;;;;;4952325;28;20479;-82